Time;durP1;ratioP1;P1;durP2;ratioP2;P2;SDS_P1;SDS_P2;PMS_P1;PMS_P2;Temp;Humidity;BMP_temperature;BMP_pressure;BME280_temperature;BME280_humidity;BME280_pressure;Samples;Min_cycle;Max_cycle;Signal;HPM_P1;HPM_P2
2023/05/12 00:00:56;;;;;;;7.27;6.67;;;10.60;99.90;;;;;;4998404;28;20232;-78
2023/05/12 00:03:24;;;;;;;11.70;10.80;;;10.60;99.90;;;;;;4996453;28;20289;-77
2023/05/12 00:05:51;;;;;;;8.93;8.13;;;10.60;99.90;;;;;;4980206;28;20233;-78
2023/05/12 00:08:18;;;;;;;8.97;8.07;;;10.60;99.90;;;;;;4996455;28;20219;-78
2023/05/12 00:10:45;;;;;;;10.27;9.27;;;10.60;99.90;;;;;;4989007;28;20225;-78
2023/05/12 00:13:12;;;;;;;12.30;11.30;;;10.60;99.90;;;;;;4979941;28;20669;-78
2023/05/12 00:15:39;;;;;;;10.10;9.23;;;10.60;99.90;;;;;;4996017;28;20287;-78
2023/05/12 00:18:05;;;;;;;9.30;8.50;;;10.60;99.90;;;;;;4997625;28;20210;-77
2023/05/12 00:20:34;;;;;;;14.20;13.17;;;10.60;99.90;;;;;;4995928;28;20578;-79
2023/05/12 00:23:01;;;;;;;12.97;12.03;;;10.50;99.90;;;;;;4997144;28;20306;-77
2023/05/12 00:25:27;;;;;;;8.87;8.17;;;10.50;99.90;;;;;;4996870;28;20232;-79
2023/05/12 00:27:54;;;;;;;9.60;8.70;;;10.60;99.90;;;;;;4996521;28;20581;-78
2023/05/12 00:30:21;;;;;;;8.10;7.40;;;10.60;99.90;;;;;;4995584;28;20278;-78
2023/05/12 00:32:48;;;;;;;8.73;7.93;;;10.60;99.90;;;;;;4996698;28;20244;-78
2023/05/12 00:35:15;;;;;;;11.77;10.87;;;10.60;99.90;;;;;;4995253;28;20185;-77
2023/05/12 00:37:44;;;;;;;10.33;9.43;;;10.60;99.90;;;;;;4979839;28;20213;-77
2023/05/12 00:40:11;;;;;;;9.40;8.60;;;10.60;99.90;;;;;;4979294;28;20199;-78
2023/05/12 00:42:38;;;;;;;10.20;9.30;;;10.60;99.90;;;;;;4997249;28;20205;-78
2023/05/12 00:45:06;;;;;;;10.93;9.93;;;10.60;99.90;;;;;;4996807;28;20737;-78
2023/05/12 00:47:34;;;;;;;10.27;9.27;;;10.60;99.90;;;;;;4979720;28;20288;-78
2023/05/12 00:50:03;;;;;;;9.77;8.77;;;10.60;99.90;;;;;;4995191;28;20205;-78
2023/05/12 00:52:30;;;;;;;9.63;8.73;;;10.60;99.90;;;;;;4979147;28;20213;-78
2023/05/12 00:55:00;;;;;;;9.53;8.53;;;10.70;99.90;;;;;;4995050;28;20253;-78
2023/05/12 00:57:27;;;;;;;10.03;8.93;;;10.70;99.90;;;;;;4996693;28;20588;-77
2023/05/12 00:59:55;;;;;;;12.80;11.70;;;10.70;99.90;;;;;;4978923;28;20223;-77
2023/05/12 01:02:22;;;;;;;10.70;9.80;;;10.70;99.90;;;;;;4995120;28;20213;-78
2023/05/12 01:04:51;;;;;;;7.80;7.00;;;10.70;99.90;;;;;;4995022;28;20270;-78
2023/05/12 01:07:21;;;;;;;9.00;8.10;;;10.70;99.90;;;;;;4995372;28;20215;-78
2023/05/12 01:09:48;;;;;;;8.17;7.30;;;10.70;99.90;;;;;;4980238;28;20211;-78
2023/05/12 01:12:16;;;;;;;10.23;9.33;;;10.70;99.90;;;;;;4996957;28;20257;-78
2023/05/12 01:14:44;;;;;;;12.57;11.53;;;10.70;99.90;;;;;;4997195;28;20183;-78
2023/05/12 01:17:14;;;;;;;8.73;7.87;;;10.70;99.90;;;;;;4964871;28;20257;-78
2023/05/12 01:19:47;;;;;;;11.13;10.03;;;10.70;99.90;;;;;;4979852;28;20217;-78
2023/05/12 01:22:16;;;;;;;9.10;8.30;;;10.70;99.90;;;;;;4995597;28;20674;-79
2023/05/12 01:24:49;;;;;;;8.80;7.70;;;10.70;99.90;;;;;;4995717;28;20221;-78
2023/05/12 01:27:20;;;;;;;7.07;6.37;;;10.70;99.90;;;;;;4979412;28;20602;-78
2023/05/12 01:29:49;;;;;;;9.43;8.63;;;10.70;99.90;;;;;;4995758;28;20194;-78
2023/05/12 01:32:18;;;;;;;9.50;8.60;;;10.70;99.90;;;;;;4995488;28;20200;-78
2023/05/12 01:34:46;;;;;;;12.47;11.57;;;10.60;99.90;;;;;;4997275;28;20249;-78
2023/05/12 01:37:12;;;;;;;9.27;8.37;;;10.60;99.90;;;;;;4981467;28;20787;-78
2023/05/12 01:39:40;;;;;;;11.67;10.77;;;10.60;99.90;;;;;;4980369;28;20667;-77
2023/05/12 01:42:10;;;;;;;9.10;7.83;;;10.60;99.90;;;;;;4990222;28;20213;-78
2023/05/12 01:44:38;;;;;;;8.23;7.07;;;10.60;99.90;;;;;;4991525;28;20590;-78
2023/05/12 01:47:08;;;;;;;8.80;8.00;;;10.50;99.90;;;;;;4997992;28;20225;-77
2023/05/12 01:49:36;;;;;;;8.10;7.30;;;10.50;99.90;;;;;;4998231;28;20205;-78
2023/05/12 01:52:05;;;;;;;9.93;9.03;;;10.50;99.90;;;;;;4984083;28;20201;-78
2023/05/12 01:54:32;;;;;;;9.37;8.43;;;10.50;99.90;;;;;;4981686;28;20368;-77
2023/05/12 01:56:58;;;;;;;10.87;9.97;;;10.50;99.90;;;;;;4997482;28;20225;-78
2023/05/12 01:59:26;;;;;;;7.20;6.50;;;10.50;99.90;;;;;;4979099;28;20256;-79
2023/05/12 02:01:55;;;;;;;8.30;7.50;;;10.40;99.90;;;;;;4978827;28;20201;-77
2023/05/12 02:04:28;;;;;;;6.87;6.27;;;10.40;99.90;;;;;;4989260;28;20705;-78
2023/05/12 02:06:57;;;;;;;9.17;7.27;;;10.40;99.90;;;;;;4997716;28;20214;-78
2023/05/12 02:09:24;;;;;;;7.03;6.43;;;10.50;99.90;;;;;;4999387;28;20233;-78
2023/05/12 02:11:54;;;;;;;9.83;9.03;;;10.50;99.90;;;;;;4986429;28;20280;-77
2023/05/12 02:14:21;;;;;;;8.13;7.30;;;10.50;99.90;;;;;;4998936;28;20201;-78
2023/05/12 02:16:51;;;;;;;7.60;6.80;;;10.50;99.90;;;;;;4998999;28;20593;-78
2023/05/12 02:19:20;;;;;;;7.70;7.00;;;10.50;99.90;;;;;;4999006;28;20292;-78
2023/05/12 02:21:47;;;;;;;8.67;7.87;;;10.50;99.90;;;;;;5000122;28;20662;-78
2023/05/12 02:24:15;;;;;;;6.23;5.63;;;10.50;99.90;;;;;;4998624;28;20229;-78
2023/05/12 02:26:42;;;;;;;11.30;10.30;;;10.60;99.90;;;;;;5004688;28;20221;-77
2023/05/12 02:29:10;;;;;;;7.90;7.13;;;10.50;99.90;;;;;;4999135;28;20682;-78
2023/05/12 02:31:37;;;;;;;8.97;8.07;;;10.60;99.90;;;;;;4999413;28;20695;-78
2023/05/12 02:34:13;;;;;;;8.47;7.57;;;10.50;99.90;;;;;;4998511;28;20215;-78
2023/05/12 02:36:41;;;;;;;11.57;10.57;;;10.50;99.90;;;;;;4998601;28;20281;-77
2023/05/12 02:39:08;;;;;;;9.70;8.80;;;10.50;99.90;;;;;;4983280;28;20204;-78
2023/05/12 02:41:36;;;;;;;10.03;9.03;;;10.50;99.90;;;;;;4981463;28;20225;-82
2023/05/12 02:44:02;;;;;;;11.20;10.20;;;10.50;99.90;;;;;;4981031;28;20257;-77
2023/05/12 02:46:29;;;;;;;10.87;9.87;;;10.50;99.90;;;;;;4992436;28;20225;-78
2023/05/12 02:48:56;;;;;;;10.57;9.50;;;10.50;99.90;;;;;;4998791;28;20217;-78
2023/05/12 02:51:23;;;;;;;11.93;10.13;;;10.50;99.90;;;;;;4996110;28;20261;-80
2023/05/12 02:53:51;;;;;;;15.17;13.77;;;10.50;99.90;;;;;;4986360;28;20237;-81
2023/05/12 02:56:18;;;;;;;11.87;10.07;;;10.50;99.90;;;;;;4991853;28;20734;-82
2023/05/12 02:58:45;;;;;;;15.87;14.47;;;10.50;99.90;;;;;;4998384;28;20197;-81
2023/05/12 03:01:12;;;;;;;12.30;10.20;;;10.50;99.90;;;;;;4981847;28;20201;-81
2023/05/12 03:03:41;;;;;;;12.67;11.43;;;10.50;99.90;;;;;;4981049;28;20213;-81
2023/05/12 03:06:08;;;;;;;20.00;18.47;;;10.50;99.90;;;;;;4988733;28;20224;-82
2023/05/12 03:08:35;;;;;;;11.07;9.97;;;10.50;99.90;;;;;;4981863;28;20213;-83
2023/05/12 03:11:04;;;;;;;12.57;11.07;;;10.60;99.90;;;;;;4981728;28;20198;-81
2023/05/12 03:13:32;;;;;;;14.67;12.23;;;10.60;99.90;;;;;;4982810;28;20194;-81
2023/05/12 03:16:00;;;;;;;16.47;12.93;;;10.50;99.90;;;;;;4986104;28;20257;-81
2023/05/12 03:18:27;;;;;;;17.23;15.37;;;10.60;99.90;;;;;;4982054;28;20222;-81
2023/05/12 03:20:54;;;;;;;15.13;13.10;;;10.60;99.90;;;;;;4981254;28;20255;-82
2023/05/12 03:23:24;;;;;;;20.90;18.80;;;10.60;99.90;;;;;;4981016;28;20208;-81
2023/05/12 03:25:51;;;;;;;19.10;17.20;;;10.60;99.90;;;;;;4998128;28;20235;-80
2023/05/12 03:28:21;;;;;;;14.17;12.63;;;10.60;99.90;;;;;;4979145;28;20201;-80
2023/05/12 03:30:48;;;;;;;13.67;12.27;;;10.60;99.90;;;;;;4978967;28;20233;-86
2023/05/12 03:33:15;;;;;;;18.30;13.93;;;10.60;99.90;;;;;;4996067;28;20575;-79
2023/05/12 03:35:44;;;;;;;15.87;13.57;;;10.60;99.90;;;;;;4984844;28;20272;-80
2023/05/12 03:38:11;;;;;;;18.50;15.47;;;10.50;99.90;;;;;;4979537;28;20205;-81
2023/05/12 03:40:38;;;;;;;19.63;14.77;;;10.50;99.90;;;;;;4994273;28;20201;-79
2023/05/12 03:43:05;;;;;;;15.17;13.03;;;10.50;99.90;;;;;;4991221;28;20198;-78
2023/05/12 03:45:33;;;;;;;15.50;13.57;;;10.50;99.90;;;;;;4983920;28;20297;-78
2023/05/12 03:48:00;;;;;;;15.40;13.70;;;10.50;99.90;;;;;;4978801;28;20210;-78
2023/05/12 03:50:26;;;;;;;22.10;19.40;;;10.50;99.90;;;;;;4980187;28;20670;-77
2023/05/12 03:52:54;;;;;;;17.73;14.80;;;10.50;99.90;;;;;;4981098;28;20685;-78
2023/05/12 03:55:21;;;;;;;23.17;20.93;;;10.50;99.90;;;;;;4994288;28;20217;-77
2023/05/12 03:57:48;;;;;;;19.60;16.30;;;10.50;99.90;;;;;;4983853;28;20201;-78
2023/05/12 04:00:16;;;;;;;18.07;15.53;;;10.50;99.90;;;;;;4998031;28;20198;-78
2023/05/12 04:02:45;;;;;;;15.23;13.10;;;10.50;99.90;;;;;;4997535;28;20269;-78
2023/05/12 04:05:14;;;;;;;16.17;14.47;;;10.50;99.90;;;;;;4993811;28;20246;-78
2023/05/12 04:07:41;;;;;;;14.90;13.27;;;10.60;99.90;;;;;;4987729;28;20670;-78
2023/05/12 04:10:09;;;;;;;14.60;12.63;;;10.60;99.90;;;;;;4982925;28;20230;-78
2023/05/12 04:12:36;;;;;;;14.37;10.93;;;10.70;99.90;;;;;;4982806;28;20586;-77
2023/05/12 04:15:02;;;;;;;14.10;11.90;;;10.70;99.90;;;;;;4978573;28;20204;-77
2023/05/12 04:17:29;;;;;;;14.13;12.33;;;10.70;99.90;;;;;;4998165;28;20211;-81
2023/05/12 04:19:59;;;;;;;12.93;11.10;;;10.70;99.90;;;;;;4980239;28;20257;-80
2023/05/12 04:22:26;;;;;;;16.47;14.90;;;10.80;99.90;;;;;;4988730;28;20672;-81
2023/05/12 04:24:53;;;;;;;12.70;10.93;;;10.80;99.90;;;;;;4981120;28;20303;-81
2023/05/12 04:27:20;;;;;;;18.03;16.53;;;10.80;99.90;;;;;;4995360;28;20220;-80
2023/05/12 04:29:47;;;;;;;11.80;10.60;;;10.80;99.90;;;;;;4980781;28;20603;-79
2023/05/12 04:32:15;;;;;;;12.83;11.60;;;10.80;99.90;;;;;;4982801;28;20200;-79
2023/05/12 04:34:42;;;;;;;18.07;16.57;;;10.80;99.90;;;;;;4984632;28;20649;-80
2023/05/12 04:37:10;;;;;;;11.17;10.17;;;10.80;99.90;;;;;;4988312;28;20218;-79
2023/05/12 04:39:37;;;;;;;10.87;9.73;;;10.90;99.90;;;;;;4990092;28;20778;-80
2023/05/12 04:42:05;;;;;;;15.00;13.80;;;10.80;99.90;;;;;;4988464;28;20218;-81
2023/05/12 04:44:34;;;;;;;11.57;10.47;;;10.90;99.90;;;;;;4988714;28;20228;-80
2023/05/12 04:47:00;;;;;;;8.87;7.97;;;10.90;99.90;;;;;;4998421;28;20219;-80
2023/05/12 04:49:27;;;;;;;10.40;9.57;;;10.90;99.90;;;;;;4990818;28;20610;-80
2023/05/12 04:51:54;;;;;;;10.73;9.53;;;11.00;99.90;;;;;;4982155;28;20215;-80
2023/05/12 04:54:23;;;;;;;8.67;7.77;;;10.90;99.90;;;;;;4995688;28;20240;-81
2023/05/12 04:56:50;;;;;;;8.50;7.60;;;11.00;99.90;;;;;;4993407;28;20231;-81
2023/05/12 04:59:17;;;;;;;10.53;8.27;;;11.00;99.90;;;;;;4988540;28;20765;-78
2023/05/12 05:01:45;;;;;;;8.70;7.83;;;11.00;99.90;;;;;;4978010;28;20683;-80
2023/05/12 05:04:14;;;;;;;8.93;8.03;;;11.10;99.90;;;;;;5002417;28;20199;-79
2023/05/12 05:06:41;;;;;;;9.60;8.33;;;11.10;99.90;;;;;;4984111;28;20266;-81
2023/05/12 05:09:08;;;;;;;9.43;8.43;;;11.10;99.90;;;;;;4985269;28;20292;-80
2023/05/12 05:11:37;;;;;;;8.80;7.90;;;11.20;99.90;;;;;;4997206;28;20282;-81
2023/05/12 05:14:03;;;;;;;16.23;14.93;;;11.30;99.90;;;;;;4989644;28;20211;-79
2023/05/12 05:16:33;;;;;;;17.30;15.90;;;11.40;99.90;;;;;;4990955;28;20704;-78
2023/05/12 05:19:00;;;;;;;17.67;16.37;;;11.40;99.90;;;;;;4988268;28;20208;-77
2023/05/12 05:21:27;;;;;;;9.53;8.53;;;11.50;99.90;;;;;;4982496;28;20684;-78
2023/05/12 05:23:54;;;;;;;8.77;7.87;;;11.60;99.90;;;;;;4989264;28;20632;-78
2023/05/12 05:26:22;;;;;;;10.00;7.70;;;11.60;99.90;;;;;;4987251;28;20224;-80
2023/05/12 05:28:53;;;;;;;9.47;8.63;;;11.60;99.90;;;;;;4997898;28;20287;-80
2023/05/12 05:31:21;;;;;;;9.70;8.70;;;11.70;99.90;;;;;;4982254;28;20201;-79
2023/05/12 05:33:48;;;;;;;8.90;8.00;;;11.70;99.90;;;;;;4983526;28;20678;-80
2023/05/12 05:36:16;;;;;;;12.00;11.00;;;11.70;99.90;;;;;;4988677;28;20221;-79
2023/05/12 05:38:43;;;;;;;10.27;9.27;;;11.80;99.90;;;;;;4988044;28;20232;-81
2023/05/12 05:41:10;;;;;;;9.70;8.70;;;11.80;99.90;;;;;;4971352;28;20578;-80
2023/05/12 05:43:37;;;;;;;8.67;7.77;;;11.90;99.90;;;;;;4991654;28;20559;-78
2023/05/12 05:46:05;;;;;;;8.80;7.90;;;12.00;99.90;;;;;;4987930;28;20712;-78
2023/05/12 05:48:33;;;;;;;9.03;8.13;;;12.00;99.90;;;;;;4986605;28;20229;-77
2023/05/12 05:51:00;;;;;;;9.07;8.13;;;12.10;99.90;;;;;;4994900;28;20209;-78
2023/05/12 05:53:27;;;;;;;8.43;7.63;;;12.20;99.90;;;;;;4997164;28;20196;-78
2023/05/12 05:55:54;;;;;;;10.07;9.17;;;12.20;99.90;;;;;;4989909;28;20221;-78
2023/05/12 05:58:23;;;;;;;9.93;9.10;;;12.20;99.90;;;;;;4988929;28;20304;-78
2023/05/12 06:00:50;;;;;;;8.33;7.30;;;12.30;99.90;;;;;;4997752;28;20684;-77
2023/05/12 06:03:18;;;;;;;7.37;6.63;;;12.40;99.90;;;;;;4989871;28;20204;-77
2023/05/12 06:05:45;;;;;;;11.53;10.63;;;12.50;99.90;;;;;;4991494;28;20315;-77
2023/05/12 06:08:12;;;;;;;10.13;9.23;;;12.50;99.90;;;;;;4999584;28;20244;-77
2023/05/12 06:10:39;;;;;;;8.00;7.20;;;12.60;99.90;;;;;;4997562;28;20229;-78
2023/05/12 06:13:06;;;;;;;8.17;7.37;;;12.80;99.90;;;;;;4999265;28;20643;-79
2023/05/12 06:15:33;;;;;;;8.17;7.43;;;12.80;99.90;;;;;;4989019;28;20256;-80
2023/05/12 06:18:00;;;;;;;7.40;6.60;;;12.90;99.90;;;;;;4974822;28;20205;-80
2023/05/12 06:20:28;;;;;;;9.23;7.83;;;13.00;99.90;;;;;;4993327;28;20224;-80
2023/05/12 06:22:55;;;;;;;10.93;10.13;;;13.00;99.90;;;;;;4978367;28;20688;-78
2023/05/12 06:25:22;;;;;;;7.20;6.50;;;13.10;99.90;;;;;;4995381;28;20225;-79
2023/05/12 06:27:51;;;;;;;10.57;9.67;;;13.20;99.90;;;;;;5004739;28;20259;-80
2023/05/12 06:30:18;;;;;;;11.70;10.70;;;13.40;99.90;;;;;;4994582;28;20220;-79
2023/05/12 06:32:45;;;;;;;11.60;10.70;;;13.40;99.90;;;;;;4997328;28;20211;-77
2023/05/12 06:35:12;;;;;;;11.63;10.73;;;13.50;99.90;;;;;;4978880;28;20279;-78
2023/05/12 06:37:40;;;;;;;11.13;10.23;;;13.60;99.90;;;;;;4988876;28;20229;-79
2023/05/12 06:40:08;;;;;;;11.03;10.13;;;13.60;99.90;;;;;;4993988;28;20670;-79
2023/05/12 06:42:35;;;;;;;11.20;10.20;;;13.60;99.90;;;;;;4983568;28;20233;-79
2023/05/12 06:45:09;;;;;;;10.80;9.73;;;13.50;99.90;;;;;;4983152;28;20222;-79
2023/05/12 06:47:36;;;;;;;9.40;8.53;;;13.60;99.90;;;;;;4985334;28;20202;-79
2023/05/12 06:50:03;;;;;;;11.13;10.07;;;13.60;99.90;;;;;;4983872;28;20666;-77
2023/05/12 06:52:30;;;;;;;10.47;9.57;;;13.70;99.90;;;;;;4999050;28;20194;-78
2023/05/12 06:54:58;;;;;;;11.10;10.20;;;13.60;99.90;;;;;;4993476;28;20253;-79
2023/05/12 06:57:26;;;;;;;10.80;9.90;;;13.60;99.90;;;;;;4988203;28;20214;-80
2023/05/12 06:59:52;;;;;;;10.13;9.23;;;13.70;99.90;;;;;;5001136;28;20209;-80
2023/05/12 07:02:20;;;;;;;10.40;9.50;;;13.80;99.90;;;;;;4990909;28;20220;-79
2023/05/12 07:04:46;;;;;;;10.00;9.20;;;14.00;99.90;;;;;;4994004;28;20208;-79
2023/05/12 07:07:13;;;;;;;10.77;9.70;;;14.10;99.90;;;;;;5000564;28;20579;-82
2023/05/12 07:09:41;;;;;;;11.33;10.23;;;14.20;99.90;;;;;;5000916;28;20191;-79
2023/05/12 07:12:09;;;;;;;11.20;10.20;;;14.40;99.90;;;;;;5001976;28;20409;-78
2023/05/12 07:14:36;;;;;;;11.23;10.23;;;14.60;99.90;;;;;;5007374;28;20297;-83
2023/05/12 07:17:03;;;;;;;11.50;10.50;;;14.80;99.90;;;;;;4996099;28;20220;-80
2023/05/12 07:19:30;;;;;;;10.60;9.70;;;14.90;99.90;;;;;;5000071;28;20282;-79
2023/05/12 07:21:57;;;;;;;11.13;10.23;;;15.10;99.90;;;;;;4999722;28;20212;-80
2023/05/12 07:24:24;;;;;;;11.13;10.23;;;15.10;99.90;;;;;;4994913;28;20208;-79
2023/05/12 07:26:51;;;;;;;10.37;9.47;;;15.20;99.90;;;;;;4995480;28;20259;-80
2023/05/12 07:29:19;;;;;;;10.30;9.50;;;15.20;99.90;;;;;;4991702;28;20214;-80
2023/05/12 07:31:46;;;;;;;9.90;9.07;;;15.10;99.90;;;;;;4976219;28;20201;-80
2023/05/12 07:34:13;;;;;;;11.10;10.10;;;14.80;99.90;;;;;;4993463;28;20197;-79
2023/05/12 07:36:40;;;;;;;10.70;9.80;;;14.80;99.90;;;;;;4989729;28;20239;-80
2023/05/12 07:39:07;;;;;;;11.20;10.20;;;14.90;99.90;;;;;;5002725;28;20213;-79
2023/05/12 07:41:34;;;;;;;11.07;10.07;;;14.90;99.90;;;;;;4990488;28;20197;-80
2023/05/12 07:44:02;;;;;;;10.87;9.97;;;14.90;99.90;;;;;;4992916;28;20324;-80
2023/05/12 07:46:30;;;;;;;9.80;8.90;;;15.10;99.90;;;;;;4994924;28;20277;-78
2023/05/12 07:48:56;;;;;;;10.00;9.13;;;15.40;99.90;;;;;;4996357;28;20228;-79
2023/05/12 07:51:23;;;;;;;9.37;8.57;;;15.30;99.90;;;;;;4999170;28;20265;-78
2023/05/12 07:53:50;;;;;;;9.70;8.90;;;15.50;99.90;;;;;;4999433;28;20253;-80
2023/05/12 07:56:17;;;;;;;6.53;5.93;;;15.70;99.90;;;;;;4997883;28;20271;-77
2023/05/12 07:58:43;;;;;;;8.07;7.37;;;16.20;99.90;;;;;;4993179;28;20203;-77
2023/05/12 08:01:10;;;;;;;7.30;6.73;;;16.50;99.90;;;;;;4993925;28;20294;-77
2023/05/12 08:03:39;;;;;;;7.90;7.20;;;17.10;99.90;;;;;;4993391;28;20682;-76
2023/05/12 08:06:06;;;;;;;8.60;7.90;;;17.50;99.90;;;;;;4991833;28;20297;-77
2023/05/12 08:08:33;;;;;;;6.93;6.43;;;17.60;99.90;;;;;;4992199;28;20917;-77
2023/05/12 08:10:59;;;;;;;9.83;9.03;;;17.80;99.90;;;;;;4991887;28;20246;-77
2023/05/12 08:13:26;;;;;;;9.60;8.87;;;18.20;99.90;;;;;;4993307;28;20220;-77
2023/05/12 08:15:53;;;;;;;9.27;8.57;;;18.20;99.90;;;;;;4993675;28;20275;-77
2023/05/12 08:18:20;;;;;;;9.33;8.63;;;17.90;99.90;;;;;;4993687;28;20715;-78
2023/05/12 08:20:48;;;;;;;9.77;9.05;;;17.70;99.90;;;;;;4991547;28;20476;-80
2023/05/12 08:23:16;;;;;;;9.90;9.20;;;17.70;99.90;;;;;;4984050;28;20201;-81
2023/05/12 08:25:44;;;;;;;7.73;7.03;;;17.40;99.90;;;;;;4987690;28;20650;-80
2023/05/12 08:28:11;;;;;;;9.03;7.97;;;17.20;99.90;;;;;;4999877;28;20205;-81
2023/05/12 08:30:38;;;;;;;9.83;9.10;;;17.00;99.90;;;;;;4985897;28;20201;-80
2023/05/12 08:33:05;;;;;;;9.67;8.87;;;16.80;99.90;;;;;;4997951;28;20261;-80
2023/05/12 08:35:32;;;;;;;6.00;5.50;;;16.70;99.90;;;;;;4993229;28;20225;-81
2023/05/12 08:38:00;;;;;;;5.63;5.03;;;16.70;99.90;;;;;;4986258;28;20616;-81
2023/05/12 08:40:30;;;;;;;5.55;4.97;;;16.70;99.90;;;;;;5003531;28;20435;-80
2023/05/12 08:43:05;;;;;;;8.13;7.53;;;16.70;99.90;;;;;;4997460;28;20231;-81
2023/05/12 08:45:35;;;;;;;8.40;7.70;;;16.80;99.90;;;;;;4997248;28;20223;-76
2023/05/12 08:48:04;;;;;;;7.90;7.20;;;16.70;99.90;;;;;;4992024;28;20278;-80
2023/05/12 08:50:32;;;;;;;6.13;5.37;;;16.80;99.90;;;;;;4993726;28;20211;-80
2023/05/12 08:53:01;;;;;;;6.07;4.87;;;16.70;99.90;;;;;;4997840;28;20226;-79
2023/05/12 08:55:29;;;;;;;5.03;4.50;;;16.70;99.90;;;;;;4998802;28;20224;-81
2023/05/12 08:57:57;;;;;;;5.60;5.00;;;16.70;99.90;;;;;;4995612;28;20207;-80
2023/05/12 09:00:25;;;;;;;5.73;4.87;;;16.70;99.90;;;;;;4994766;28;20733;-79
2023/05/12 09:02:53;;;;;;;5.70;5.20;;;16.70;99.90;;;;;;4994465;28;20454;-79
2023/05/12 09:05:19;;;;;;;8.67;8.03;;;16.80;99.90;;;;;;4989723;28;20798;-79
2023/05/12 09:07:49;;;;;;;7.43;6.93;;;16.90;99.90;;;;;;4997527;28;20254;-79
2023/05/12 09:10:21;;;;;;;6.97;6.20;;;17.00;99.90;;;;;;4982931;28;20204;-79
2023/05/12 09:12:50;;;;;;;7.43;6.83;;;17.20;99.90;;;;;;4984340;28;20208;-80
2023/05/12 09:15:22;;;;;;;7.47;6.83;;;17.50;99.90;;;;;;4988670;28;20262;-79
2023/05/12 09:17:48;;;;;;;5.30;4.83;;;17.60;99.90;;;;;;4992112;28;20673;-80
2023/05/12 09:20:16;;;;;;;4.60;4.20;;;17.70;99.90;;;;;;4998394;28;20246;-80
2023/05/12 09:22:43;;;;;;;9.03;8.43;;;17.80;99.90;;;;;;4981506;28;20228;-80
2023/05/12 09:25:18;;;;;;;9.60;8.90;;;17.90;99.90;;;;;;4994323;28;20209;-80
2023/05/12 09:27:47;;;;;;;11.40;10.50;;;18.10;99.90;;;;;;4991506;28;20201;-81
2023/05/12 09:30:14;;;;;;;5.40;5.03;;;17.90;99.90;;;;;;4995271;28;20669;-80
2023/05/12 09:32:42;;;;;;;4.77;4.10;;;17.70;99.90;;;;;;4991007;28;20201;-81
2023/05/12 09:35:10;;;;;;;5.37;4.97;;;17.70;99.90;;;;;;4998413;28;20232;-81
2023/05/12 09:37:39;;;;;;;6.67;6.17;;;17.90;99.90;;;;;;4993429;28;20308;-81
2023/05/12 09:40:07;;;;;;;3.40;3.20;;;17.80;99.90;;;;;;4980190;28;20205;-80
2023/05/12 09:42:36;;;;;;;4.03;3.73;;;17.90;99.90;;;;;;4990611;28;20224;-79
2023/05/12 09:45:03;;;;;;;4.90;4.50;;;17.90;99.90;;;;;;4993849;28;20215;-79
2023/05/12 09:47:41;;;;;;;5.17;4.73;;;17.60;99.90;;;;;;4984431;28;20208;-80
2023/05/12 09:50:09;;;;;;;4.00;3.80;;;17.30;99.90;;;;;;4986009;28;20216;-79
2023/05/12 09:52:37;;;;;;;3.73;3.43;;;17.30;99.90;;;;;;4995513;28;20209;-81
2023/05/12 09:55:07;;;;;;;3.90;3.60;;;17.30;99.90;;;;;;4993183;28;20239;-79
2023/05/12 09:57:39;;;;;;;3.50;3.30;;;17.20;99.90;;;;;;4987149;28;20227;-80
2023/05/12 10:00:09;;;;;;;3.40;3.20;;;17.30;99.90;;;;;;4993362;28;20211;-80
2023/05/12 10:02:39;;;;;;;7.77;6.93;;;17.20;99.90;;;;;;4992836;28;20275;-79
2023/05/12 10:05:10;;;;;;;3.73;3.37;;;17.40;99.90;;;;;;4994756;28;20212;-80
2023/05/12 10:07:37;;;;;;;3.30;3.10;;;17.40;99.90;;;;;;4995159;28;20211;-78
2023/05/12 10:10:06;;;;;;;3.90;3.60;;;17.40;99.90;;;;;;4994787;28;20688;-77
2023/05/12 10:12:34;;;;;;;4.60;4.23;;;17.70;99.90;;;;;;4994496;28;20196;-80
2023/05/12 10:15:04;;;;;;;4.05;3.75;;;17.80;99.90;;;;;;4976724;28;20476;-81
2023/05/12 10:17:32;;;;;;;4.85;4.55;;;18.40;99.90;;;;;;4993790;28;20959;-79
2023/05/12 10:19:59;;;;;;;4.47;4.07;;;18.90;99.90;;;;;;4989148;28;20496;-78
2023/05/12 10:22:28;;;;;;;3.40;3.17;;;18.90;99.90;;;;;;4995189;28;20213;-79
2023/05/12 10:24:55;;;;;;;3.23;3.00;;;19.00;99.90;;;;;;4994014;28;20210;-81
2023/05/12 10:27:23;;;;;;;3.17;2.97;;;18.80;99.90;;;;;;4990616;28;20449;-79
2023/05/12 10:29:51;;;;;;;2.73;2.63;;;18.70;99.90;;;;;;4992078;28;20205;-79
2023/05/12 10:32:19;;;;;;;2.63;2.50;;;18.50;99.90;;;;;;4993106;28;20247;-79
2023/05/12 10:34:46;;;;;;;2.90;2.70;;;18.20;99.90;;;;;;4997175;28;20264;-79
2023/05/12 10:37:13;;;;;;;4.40;4.13;;;17.50;99.90;;;;;;4988874;28;20453;-78
2023/05/12 10:39:47;;;;;;;6.90;6.50;;;17.10;99.90;;;;;;4983335;28;20205;-78
2023/05/12 10:42:17;;;;;;;7.07;6.50;;;16.80;99.90;;;;;;4995876;28;20211;-78
2023/05/12 10:44:51;;;;;;;4.83;4.50;;;16.60;99.90;;;;;;4995347;28;20676;-79
2023/05/12 10:47:25;;;;;;;6.10;5.70;;;16.00;99.90;;;;;;4997073;28;20215;-79
2023/05/12 10:49:57;;;;;;;5.67;5.27;;;15.90;99.90;;;;;;4996222;28;20193;-79
2023/05/12 10:52:24;;;;;;;3.83;3.60;;;15.80;99.90;;;;;;4988780;28;20256;-78
2023/05/12 10:54:50;;;;;;;5.67;5.27;;;15.80;99.90;;;;;;5000271;28;20250;-80
2023/05/12 10:57:20;;;;;;;7.43;6.83;;;15.70;99.90;;;;;;5001665;28;20283;-79
2023/05/12 10:59:51;;;;;;;9.30;8.73;;;15.60;99.90;;;;;;4994767;28;20547;-79
2023/05/12 11:02:24;;;;;;;9.17;8.57;;;15.60;99.90;;;;;;4995042;28;20227;-79
2023/05/12 11:04:52;;;;;;;3.50;3.30;;;15.60;99.90;;;;;;4995949;28;20191;-79
2023/05/12 11:07:21;;;;;;;4.10;3.80;;;15.70;99.90;;;;;;4995520;28;20216;-79
2023/05/12 11:09:48;;;;;;;3.37;3.00;;;15.80;99.90;;;;;;4992837;28;20205;-79
2023/05/12 11:12:16;;;;;;;8.13;3.20;;;15.90;99.90;;;;;;4998707;28;20271;-80
2023/05/12 11:14:44;;;;;;;3.80;3.50;;;15.80;99.90;;;;;;4991139;28;20252;-80
2023/05/12 11:17:11;;;;;;;4.13;3.80;;;15.70;99.90;;;;;;5000216;28;20645;-81
2023/05/12 11:19:44;;;;;;;5.43;4.93;;;15.90;99.90;;;;;;4997658;28;20192;-79
2023/05/12 11:22:12;;;;;;;8.80;8.10;;;15.90;99.90;;;;;;4998258;28;20202;-78
2023/05/12 11:24:41;;;;;;;6.30;5.90;;;16.10;99.90;;;;;;4985221;28;20190;-78
2023/05/12 11:27:12;;;;;;;5.20;4.80;;;16.40;99.90;;;;;;4994262;28;20214;-80
2023/05/12 11:29:40;;;;;;;3.00;2.80;;;16.40;99.90;;;;;;4994343;28;20654;-77
2023/05/12 11:32:09;;;;;;;2.97;2.70;;;16.40;99.90;;;;;;4995004;28;20732;-78
2023/05/12 11:34:36;;;;;;;5.93;5.53;;;16.40;99.90;;;;;;4995046;28;20687;-78
2023/05/12 11:37:05;;;;;;;3.20;3.00;;;16.40;99.90;;;;;;4995077;28;20219;-79
2023/05/12 11:39:32;;;;;;;3.20;3.00;;;16.40;99.90;;;;;;4995549;28;20201;-78
2023/05/12 11:42:02;;;;;;;3.43;3.13;;;16.60;99.90;;;;;;4995917;28;20603;-81
2023/05/12 11:44:29;;;;;;;4.77;4.37;;;16.60;99.90;;;;;;4996723;28;20658;-81
2023/05/12 11:46:57;;;;;;;6.67;6.27;;;16.60;99.90;;;;;;4999041;28;20222;-83
2023/05/12 11:49:25;;;;;;;5.67;5.23;;;16.40;99.90;;;;;;5003052;28;20197;-82
2023/05/12 11:51:52;;;;;;;4.97;4.57;;;16.30;99.90;;;;;;4981366;28;20224;-79
2023/05/12 11:54:21;;;;;;;6.40;5.90;;;16.10;99.90;;;;;;4980765;28;20235;-80
2023/05/12 11:56:49;;;;;;;4.03;3.20;;;15.90;99.90;;;;;;4977678;28;20271;-79
2023/05/12 11:59:28;;;;;;;8.23;7.73;;;15.60;99.90;;;;;;4994360;28;20251;-79
2023/05/12 12:01:55;;;;;;;2.70;2.60;;;15.50;99.90;;;;;;4979412;28;20197;-80
2023/05/12 12:04:33;;;;;;;6.97;6.57;;;15.60;99.90;;;;;;4992484;28;20197;-78
2023/05/12 12:07:00;;;;;;;8.73;8.20;;;15.50;99.90;;;;;;4985723;28;20225;-79
2023/05/12 12:09:37;;;;;;;3.40;3.20;;;15.70;99.90;;;;;;4994582;28;20225;-78
2023/05/12 12:12:05;;;;;;;2.57;2.47;;;15.90;99.90;;;;;;4989299;28;20212;-79
2023/05/12 12:14:34;;;;;;;3.10;2.50;;;16.20;99.90;;;;;;4993887;28;20451;-79
2023/05/12 12:17:01;;;;;;;2.80;2.60;;;16.50;99.90;;;;;;5047080;23;20228;-80
2023/05/12 12:19:28;;;;;;;6.70;6.30;;;16.70;99.90;;;;;;5013689;28;20196;-80
2023/05/12 12:21:55;;;;;;;4.77;4.13;;;17.10;99.90;;;;;;5004748;28;20200;-80
2023/05/12 12:24:22;;;;;;;6.70;6.30;;;17.60;99.90;;;;;;5005747;28;20205;-80
2023/05/12 12:26:50;;;;;;;2.23;2.13;;;17.80;99.90;;;;;;5009500;28;20218;-81
2023/05/12 12:29:17;;;;;;;2.10;2.00;;;17.80;99.90;;;;;;5007239;28;20726;-82
2023/05/12 12:31:44;;;;;;;2.23;2.10;;;17.60;99.90;;;;;;5003449;28;20258;-81
2023/05/12 12:34:11;;;;;;;2.60;2.50;;;17.70;99.90;;;;;;5006374;28;20202;-82
2023/05/12 12:36:40;;;;;;;3.13;3.03;;;17.70;99.90;;;;;;5012077;28;20302;-81
2023/05/12 12:39:07;;;;;;;2.23;2.13;;;17.80;99.90;;;;;;5008591;28;20258;-82
2023/05/12 12:41:34;;;;;;;2.40;2.20;;;18.00;99.90;;;;;;4996995;28;20243;-82
2023/05/12 12:44:02;;;;;;;2.40;2.30;;;17.80;99.90;;;;;;5011455;28;20199;-81